createdAt,value
2019-05-13T00:01:18.836Z,94.10
2019-05-13T00:03:49.371Z,93.90
2019-05-13T00:06:19.944Z,94.20
2019-05-13T00:08:51.472Z,94.30
2019-05-13T00:11:23.987Z,94.40
2019-05-13T00:13:54.249Z,94.80
2019-05-13T00:16:24.757Z,94.80
2019-05-13T00:18:55.354Z,95.00
2019-05-13T00:21:25.908Z,95.10
2019-05-13T00:26:33.897Z,95.20
2019-05-13T00:29:04.570Z,95.50
2019-05-13T00:31:36.112Z,95.80
2019-05-13T00:34:06.720Z,95.70
2019-05-13T00:36:37.315Z,96.00
2019-05-13T00:39:08.722Z,96.50
2019-05-13T00:41:39.305Z,96.70
2019-05-13T00:44:09.864Z,97.10
2019-05-13T00:46:40.393Z,97.20
2019-05-13T00:49:13.261Z,97.30
2019-05-13T00:51:44.435Z,97.30
2019-05-13T00:54:15.180Z,97.10
2019-05-13T00:56:45.792Z,97.20
2019-05-13T00:59:16.363Z,97.40
2019-05-13T01:01:46.863Z,97.60
2019-05-13T01:04:17.350Z,97.60
2019-05-13T01:06:47.843Z,97.80
2019-05-13T01:09:18.422Z,98.00
2019-05-13T01:11:49.028Z,98.10
2019-05-13T01:14:20.474Z,98.40
2019-05-13T01:16:51.024Z,98.50
2019-05-13T01:19:23.574Z,98.70
2019-05-13T01:21:54.156Z,98.80
2019-05-13T01:24:24.599Z,99.00
2019-05-13T01:26:55.155Z,99.30
2019-05-13T01:29:25.708Z,99.50
2019-05-13T01:31:56.273Z,99.90
2019-05-13T01:34:26.849Z,99.90
2019-05-13T01:36:57.426Z,99.80
2019-05-13T01:39:27.976Z,99.90
2019-05-13T01:41:58.541Z,99.90
2019-05-13T01:44:29.037Z,99.90
2019-05-13T01:46:59.592Z,99.90
2019-05-13T01:49:30.155Z,99.90
2019-05-13T01:52:00.707Z,99.90
2019-05-13T01:54:33.643Z,99.90
2019-05-13T01:57:04.419Z,99.90
2019-05-13T01:59:35.231Z,99.90
2019-05-13T02:02:06.672Z,99.90
2019-05-13T02:04:37.229Z,99.90
2019-05-13T02:07:07.692Z,99.90
2019-05-13T02:09:38.265Z,99.90
2019-05-13T02:12:08.860Z,99.90
2019-05-13T02:14:39.428Z,99.90
2019-05-13T02:17:09.997Z,99.90
2019-05-13T02:19:40.485Z,99.90
2019-05-13T02:22:10.963Z,99.90
2019-05-13T02:27:25.514Z,99.90
2019-05-13T02:29:56.138Z,99.90
2019-05-13T02:32:26.635Z,99.90
2019-05-13T02:34:57.173Z,99.90
2019-05-13T02:37:29.536Z,99.90
2019-05-13T02:40:03.489Z,99.90
2019-05-13T02:42:32.721Z,99.90
2019-05-13T02:45:04.012Z,99.90
2019-05-13T02:47:34.650Z,99.90
2019-05-13T02:50:05.562Z,99.90
2019-05-13T02:52:36.119Z,99.90
2019-05-13T02:55:07.603Z,99.90
2019-05-13T02:57:38.200Z,99.90
2019-05-13T03:00:12.932Z,99.90
2019-05-13T03:02:43.751Z,99.90
2019-05-13T03:05:14.968Z,99.90
2019-05-13T03:07:45.526Z,99.90
2019-05-13T03:10:16.115Z,99.90
2019-05-13T03:12:46.706Z,99.90
2019-05-13T03:15:17.405Z,99.90
2019-05-13T03:18:06.524Z,99.90
2019-05-13T03:20:37.369Z,99.90
2019-05-13T03:23:07.938Z,99.90
2019-05-13T03:25:38.415Z,99.90
2019-05-13T03:28:13.203Z,99.90
2019-05-13T03:30:45.815Z,99.90
2019-05-13T03:33:19.307Z,99.90
2019-05-13T03:35:46.422Z,99.90
2019-05-13T03:38:16.913Z,99.90
2019-05-13T03:40:48.468Z,99.90
2019-05-13T03:43:22.921Z,99.90
2019-05-13T03:45:57.213Z,99.90
2019-05-13T03:51:12.949Z,99.90
2019-05-13T03:53:43.289Z,99.90
2019-05-13T03:56:14.969Z,99.90
2019-05-13T03:58:45.580Z,99.90
2019-05-13T04:01:16.174Z,99.90
2019-05-13T04:03:46.666Z,99.90
2019-05-13T04:06:17.153Z,99.90
2019-05-13T04:08:47.632Z,99.90
2019-05-13T04:11:18.124Z,99.90
2019-05-13T04:13:48.767Z,99.90
2019-05-13T04:16:23.338Z,99.90
2019-05-13T04:18:53.663Z,99.90
2019-05-13T04:21:24.016Z,99.90
2019-05-13T04:23:54.709Z,99.90
2019-05-13T04:26:25.272Z,99.90
2019-05-13T04:28:55.798Z,99.90
2019-05-13T04:31:26.474Z,99.90
2019-05-13T04:33:57.013Z,99.90
2019-05-13T04:36:27.498Z,99.90
2019-05-13T04:38:58.339Z,99.90
2019-05-13T04:41:28.821Z,99.90
2019-05-13T04:44:02.332Z,99.90
2019-05-13T04:46:32.765Z,99.90
2019-05-13T04:49:03.463Z,99.90
2019-05-13T04:51:34.913Z,99.90
2019-05-13T04:54:05.555Z,99.90
2019-05-13T04:56:36.076Z,99.90
2019-05-13T04:59:06.683Z,99.90
2019-05-13T05:02:16.552Z,99.90
2019-05-13T05:04:56.767Z,99.90
2019-05-13T05:07:52.499Z,99.90
2019-05-13T05:11:02.633Z,99.90
2019-05-13T05:14:02.739Z,99.90
2019-05-13T05:17:03.338Z,99.90
2019-05-13T05:20:23.089Z,99.90
2019-05-13T05:23:37.167Z,99.90
2019-05-13T05:26:43.109Z,99.90
2019-05-13T05:32:32.331Z,99.90
2019-05-13T05:35:25.849Z,99.90
2019-05-13T05:38:31.837Z,99.90
2019-05-13T05:41:03.495Z,99.90
2019-05-13T05:43:36.524Z,99.90
2019-05-13T05:46:11.107Z,99.90
2019-05-13T05:48:42.728Z,99.90
2019-05-13T05:51:14.711Z,99.90
2019-05-13T05:53:47.104Z,99.90
2019-05-13T05:56:17.793Z,99.90
2019-05-13T05:58:52.340Z,99.90
2019-05-13T06:01:24.248Z,99.90
2019-05-13T06:03:57.555Z,99.90
2019-05-13T06:06:28.879Z,99.90
2019-05-13T06:11:48.475Z,99.90
2019-05-13T06:14:21.756Z,99.90
2019-05-13T06:16:51.954Z,99.90
2019-05-13T06:19:22.655Z,99.90
2019-05-13T06:21:53.233Z,99.90
2019-05-13T06:24:26.775Z,99.90
2019-05-13T06:26:56.223Z,99.90
2019-05-13T06:29:26.760Z,99.90
2019-05-13T06:31:57.365Z,99.90
2019-05-13T06:34:28.020Z,99.90
2019-05-13T06:36:58.614Z,99.90
2019-05-13T06:39:31.677Z,99.90
2019-05-13T06:44:51.366Z,99.90
2019-05-13T06:47:22.159Z,99.90
2019-05-13T06:49:52.676Z,99.90
2019-05-13T06:52:23.173Z,99.90
2019-05-13T06:54:53.720Z,99.90
2019-05-13T06:57:24.239Z,99.70
2019-05-13T06:59:55.787Z,99.30
2019-05-13T07:02:26.273Z,99.20
2019-05-13T07:04:56.750Z,98.50
2019-05-13T07:07:27.330Z,97.90
2019-05-13T07:09:58.003Z,97.20
2019-05-13T07:12:31.012Z,96.50
2019-05-13T07:15:02.510Z,96.40
2019-05-13T07:17:33.988Z,95.90
2019-05-13T07:20:04.999Z,95.50
2019-05-13T07:22:35.553Z,95.60
2019-05-13T07:25:06.206Z,93.40
2019-05-13T07:27:37.768Z,94.00
2019-05-13T07:30:11.138Z,93.90
2019-05-13T07:32:42.042Z,93.00
2019-05-13T07:35:14.547Z,92.50
2019-05-13T07:37:45.220Z,92.80
2019-05-13T07:40:15.866Z,92.40
2019-05-13T07:42:46.498Z,92.40
2019-05-13T07:45:17.035Z,92.50
2019-05-13T07:47:47.597Z,92.10
2019-05-13T07:50:18.167Z,92.60
2019-05-13T07:52:51.332Z,92.80
2019-05-13T07:55:22.254Z,92.20
2019-05-13T07:57:52.905Z,91.00
2019-05-13T08:00:23.829Z,90.50
2019-05-13T08:02:54.448Z,90.10
2019-05-13T08:05:25.009Z,89.60
2019-05-13T08:07:55.631Z,90.00
2019-05-13T08:10:26.192Z,88.90
2019-05-13T08:12:56.778Z,88.60
2019-05-13T08:15:27.357Z,88.10
2019-05-13T08:17:58.015Z,85.10
2019-05-13T08:20:28.504Z,79.60
2019-05-13T08:22:59.063Z,81.40
2019-05-13T08:25:31.603Z,83.40
2019-05-13T08:28:02.206Z,82.70
2019-05-13T08:30:32.819Z,84.40
2019-05-13T08:33:03.465Z,83.50
2019-05-13T08:35:34.024Z,81.90
2019-05-13T08:38:04.591Z,83.20
2019-05-13T08:40:35.214Z,81.20
2019-05-13T08:43:06.866Z,80.00
2019-05-13T08:45:37.553Z,79.60
2019-05-13T08:48:09.027Z,80.60
2019-05-13T08:50:41.810Z,80.00
2019-05-13T08:53:12.257Z,80.00
2019-05-13T08:55:43.142Z,80.10
2019-05-13T08:58:14.806Z,81.30
2019-05-13T09:00:58.825Z,81.40
2019-05-13T09:03:28.000Z,79.60
2019-05-13T09:05:58.535Z,80.40
2019-05-13T09:08:31.832Z,77.80
2019-05-13T09:11:01.757Z,79.30
2019-05-13T09:13:33.099Z,77.80
2019-05-13T09:16:03.904Z,78.20
2019-05-13T09:18:35.511Z,79.40
2019-05-13T09:21:06.083Z,80.60
2019-05-13T09:23:36.665Z,79.90
2019-05-13T09:26:07.375Z,80.20
2019-05-13T09:28:37.973Z,80.10
2019-05-13T09:31:08.574Z,80.20
2019-05-13T09:33:41.650Z,79.40
2019-05-13T09:36:12.528Z,80.30
2019-05-13T09:38:44.259Z,81.40
2019-05-13T09:41:14.742Z,80.70
2019-05-13T09:43:45.306Z,80.70
2019-05-13T09:46:15.875Z,81.90
2019-05-13T09:48:46.401Z,80.20
2019-05-13T09:51:16.987Z,78.70
2019-05-13T09:53:47.534Z,79.40
2019-05-13T09:56:18.139Z,77.90
2019-05-13T09:58:51.188Z,79.50
2019-05-13T10:01:22.550Z,78.70
2019-05-13T10:03:58.026Z,79.40
2019-05-13T10:06:26.605Z,77.70
2019-05-13T10:08:57.182Z,78.50
2019-05-13T10:11:29.466Z,79.20
2019-05-13T10:14:02.120Z,79.80
2019-05-13T10:16:33.015Z,80.30
2019-05-13T10:19:03.685Z,78.60
2019-05-13T10:21:34.241Z,76.10
2019-05-13T10:24:05.097Z,75.30
2019-05-13T10:26:35.653Z,75.30
2019-05-13T10:29:06.405Z,75.30
2019-05-13T10:31:37.017Z,75.00
2019-05-13T10:34:07.630Z,74.30
2019-05-13T10:36:38.213Z,75.60
2019-05-13T10:39:11.882Z,77.70
2019-05-13T10:44:31.709Z,74.20
2019-05-13T10:47:02.633Z,73.30
2019-05-13T10:49:34.032Z,73.70
2019-05-13T10:52:04.665Z,73.90
2019-05-13T10:54:35.517Z,73.40
2019-05-13T10:57:06.093Z,72.80
2019-05-13T10:59:36.680Z,74.20
2019-05-13T11:02:07.218Z,73.10
2019-05-13T11:04:37.768Z,71.70
2019-05-13T11:07:08.372Z,73.00
2019-05-13T11:09:41.568Z,70.20
2019-05-13T11:12:12.441Z,68.60
2019-05-13T11:14:46.709Z,69.20
2019-05-13T11:17:15.250Z,68.90
2019-05-13T11:19:45.832Z,68.50
2019-05-13T11:22:16.388Z,69.50
2019-05-13T11:24:46.889Z,65.30
2019-05-13T11:27:17.480Z,65.50
2019-05-13T11:29:48.358Z,63.20
2019-05-13T11:32:18.928Z,62.50
2019-05-13T11:34:49.431Z,59.80
2019-05-13T11:37:22.357Z,57.30
2019-05-13T11:39:52.121Z,58.00
2019-05-13T11:42:22.971Z,58.20
2019-05-13T11:44:53.668Z,57.40
2019-05-13T11:47:24.151Z,55.90
2019-05-13T11:49:54.706Z,59.30
2019-05-13T11:52:25.264Z,57.10
2019-05-13T11:54:55.839Z,55.20
2019-05-13T12:00:15.974Z,56.90
2019-05-13T12:02:50.839Z,55.20
2019-05-13T12:05:18.687Z,56.70
2019-05-13T12:07:53.315Z,56.00
2019-05-13T12:10:22.804Z,54.30
2019-05-13T12:12:53.484Z,55.60
2019-05-13T12:18:23.347Z,53.10
2019-05-13T12:20:53.930Z,53.50
2019-05-13T12:23:24.484Z,54.00
2019-05-13T12:25:55.061Z,55.20
2019-05-13T12:28:25.557Z,53.50
2019-05-13T12:30:56.117Z,54.60
2019-05-13T12:33:26.675Z,52.30
2019-05-13T12:35:57.215Z,52.90
2019-05-13T12:38:27.709Z,52.40
2019-05-13T12:40:58.388Z,49.80
2019-05-13T12:43:32.008Z,52.40
2019-05-13T12:46:02.751Z,50.70
2019-05-13T12:48:33.332Z,51.80
2019-05-13T12:51:04.111Z,50.60
2019-05-13T12:53:34.678Z,52.20
2019-05-13T12:56:05.353Z,51.40
2019-05-13T14:57:41.839Z,40.50
2019-05-13T15:00:13.201Z,38.20
2019-05-13T15:02:43.768Z,38.40
2019-05-13T15:05:14.517Z,37.40
2019-05-13T15:07:45.069Z,37.20
2019-05-13T15:10:15.915Z,37.80
2019-05-13T15:12:46.438Z,37.60
2019-05-13T15:15:17.587Z,35.60
2019-05-13T15:17:48.669Z,36.20
2019-05-13T15:20:21.619Z,36.20
2019-05-13T15:22:52.068Z,37.50
2019-05-13T15:25:22.833Z,35.90
2019-05-13T15:27:54.221Z,35.80
2019-05-13T15:30:25.097Z,35.40
2019-05-13T15:32:55.780Z,36.10
2019-05-13T15:35:26.408Z,36.40
2019-05-13T15:37:56.950Z,36.40
2019-05-13T15:40:27.656Z,36.30
2019-05-13T15:42:58.193Z,34.40
2019-05-13T15:45:29.063Z,35.10
2019-05-13T15:48:02.089Z,35.50
2019-05-13T15:50:32.210Z,34.30
2019-05-13T15:53:03.066Z,35.30
2019-05-13T15:55:33.562Z,33.20
2019-05-13T15:58:04.331Z,33.80
2019-05-13T16:00:35.150Z,33.70
2019-05-13T16:03:06.092Z,34.00
2019-05-13T16:05:36.648Z,35.40
2019-05-13T16:08:07.199Z,34.80
2019-05-13T16:10:37.798Z,36.40
2019-05-13T16:13:08.362Z,35.60
2019-05-13T16:15:41.450Z,36.80
2019-05-13T16:18:11.778Z,36.30
2019-05-13T16:20:45.113Z,37.70
2019-05-13T16:26:04.001Z,37.00
2019-05-13T16:28:34.915Z,36.10
2019-05-13T16:31:05.694Z,36.40
2019-05-13T16:33:36.253Z,37.00
2019-05-13T16:36:06.873Z,37.00
2019-05-13T16:38:37.480Z,36.80
2019-05-13T16:41:07.974Z,36.30
2019-05-13T16:43:38.643Z,36.00
2019-05-13T16:46:11.916Z,35.60
2019-05-13T16:48:42.022Z,36.20
2019-05-13T16:51:12.877Z,36.00
2019-05-13T16:53:43.698Z,36.20
2019-05-13T16:56:26.882Z,35.40
2019-05-13T16:58:46.548Z,35.70
2019-05-13T17:01:17.060Z,36.00
2019-05-13T17:03:47.642Z,34.90
2019-05-13T17:06:18.580Z,35.80
2019-05-13T17:08:51.473Z,35.60
2019-05-13T17:11:21.576Z,34.70
2019-05-13T17:13:52.184Z,34.20
2019-05-13T17:16:23.353Z,33.70
2019-05-13T17:18:54.077Z,33.60
2019-05-13T17:21:24.654Z,33.70
2019-05-13T17:23:55.555Z,33.10
2019-05-13T17:26:26.143Z,33.50
2019-05-13T17:28:56.684Z,33.40
2019-05-13T17:31:27.241Z,32.50
2019-05-13T17:33:57.830Z,33.40
2019-05-13T17:36:28.394Z,33.80
2019-05-13T17:38:58.919Z,34.10
2019-05-13T17:41:31.939Z,32.30
2019-05-13T17:44:02.504Z,31.40
2019-05-13T17:46:33.815Z,31.50
2019-05-13T17:49:04.350Z,33.00
2019-05-13T17:51:34.870Z,33.60
2019-05-13T17:54:05.558Z,33.60
2019-05-13T17:56:36.094Z,34.30
2019-05-13T17:59:06.656Z,35.10
2019-05-13T18:01:37.210Z,36.00
2019-05-13T18:04:07.815Z,36.30
2019-05-13T18:06:38.389Z,37.20
2019-05-13T18:09:11.998Z,36.40
2019-05-13T18:11:42.221Z,35.90
2019-05-13T18:14:12.764Z,36.60
2019-05-13T18:16:43.468Z,37.30
2019-05-13T18:19:13.977Z,37.70
2019-05-13T18:21:44.590Z,38.10
2019-05-13T18:24:15.145Z,38.80
2019-05-13T18:26:45.723Z,38.60
2019-05-13T18:29:16.589Z,38.60
2019-05-13T18:31:47.225Z,38.70
2019-05-13T18:34:17.940Z,37.40
2019-05-13T18:36:48.646Z,38.10
2019-05-13T18:39:21.458Z,37.10
2019-05-13T18:41:51.554Z,37.50
2019-05-13T18:44:22.101Z,37.90
2019-05-13T18:46:53.032Z,37.60
2019-05-13T18:49:23.834Z,36.60
2019-05-13T18:51:54.702Z,37.40
2019-05-13T18:54:25.402Z,37.20
2019-05-13T18:56:56.254Z,37.50
2019-05-13T18:59:26.881Z,38.10
2019-05-13T19:01:57.587Z,38.60
2019-05-13T19:04:28.232Z,38.70
2019-05-13T19:07:01.935Z,38.20
2019-05-13T19:09:31.696Z,39.00
2019-05-13T19:12:03.459Z,39.90
2019-05-13T19:14:34.147Z,39.70
2019-05-13T19:17:04.959Z,40.30
2019-05-13T19:19:35.590Z,41.40
2019-05-13T19:22:06.392Z,41.40
2019-05-13T19:24:37.066Z,42.00
2019-05-13T19:27:07.753Z,43.00
2019-05-13T19:29:38.401Z,43.50
2019-05-13T19:32:09.005Z,43.90
2019-05-13T19:34:42.120Z,44.20
2019-05-13T19:37:12.176Z,44.70
2019-05-13T19:39:43.186Z,44.70
2019-05-13T19:42:13.946Z,45.40
2019-05-13T19:44:44.582Z,45.60
2019-05-13T19:47:15.124Z,45.40
2019-05-13T19:49:46.737Z,45.20
2019-05-13T19:52:17.558Z,46.00
2019-05-13T19:54:48.083Z,46.60
2019-05-13T19:57:21.123Z,46.50
2019-05-13T19:59:51.278Z,47.00
2019-05-13T20:02:22.316Z,47.10
2019-05-13T20:04:53.170Z,47.20
2019-05-13T20:07:23.886Z,47.80
2019-05-13T20:09:54.453Z,47.80
2019-05-13T20:12:25.063Z,48.30
2019-05-13T20:14:55.613Z,48.50
2019-05-13T20:17:26.197Z,48.90
2019-05-13T20:19:56.898Z,48.70
2019-05-13T20:22:27.478Z,48.80
2019-05-13T20:24:58.175Z,49.00
2019-05-13T20:27:28.750Z,49.60
2019-05-13T20:30:01.406Z,50.20
2019-05-13T20:32:31.606Z,50.30
2019-05-13T20:35:02.362Z,50.30
2019-05-13T20:37:32.884Z,50.20
2019-05-13T20:40:03.558Z,49.60
2019-05-13T20:42:34.149Z,49.10
2019-05-13T20:45:05.003Z,48.80
2019-05-13T20:47:35.626Z,48.30
2019-05-13T20:50:06.451Z,48.20
2019-05-13T20:52:37.330Z,47.90
2019-05-13T20:55:08.005Z,47.30
2019-05-13T20:57:38.575Z,47.00
2019-05-13T21:00:09.436Z,46.80
2019-05-13T21:02:41.806Z,46.80
2019-05-13T21:05:12.601Z,47.40
2019-05-13T21:07:43.290Z,47.80
2019-05-13T21:10:13.967Z,48.30
2019-05-13T21:12:44.551Z,48.50
2019-05-13T21:15:15.358Z,48.40
2019-05-13T21:17:45.959Z,48.40
2019-05-13T21:20:22.071Z,47.90
2019-05-13T21:22:48.740Z,48.20
2019-05-13T21:25:19.453Z,48.60
2019-05-13T21:27:51.475Z,47.80
2019-05-13T21:30:22.330Z,47.80
2019-05-13T21:32:52.900Z,47.60
2019-05-13T21:35:23.409Z,47.40
2019-05-13T21:37:54.018Z,47.30
2019-05-13T21:40:24.550Z,47.30
2019-05-13T21:42:55.105Z,46.90
2019-05-13T21:45:25.705Z,46.90
2019-05-13T21:47:56.344Z,46.80
2019-05-13T21:50:34.264Z,46.70
2019-05-13T21:53:01.866Z,46.30
2019-05-13T21:55:31.699Z,46.50
2019-05-13T21:58:03.300Z,46.30
2019-05-13T22:00:41.669Z,46.40
2019-05-13T22:03:15.290Z,46.20
2019-05-13T22:05:45.964Z,45.80
2019-05-13T22:08:16.461Z,45.60
2019-05-13T22:10:47.100Z,45.60
2019-05-13T22:13:18.053Z,46.00
2019-05-13T22:15:48.667Z,45.70
2019-05-13T22:18:19.755Z,46.10
2019-05-13T22:20:53.449Z,46.50
2019-05-13T22:23:22.612Z,46.50
2019-05-13T22:25:53.134Z,46.40
2019-05-13T22:28:23.812Z,46.80
2019-05-13T22:30:54.386Z,47.20
2019-05-13T22:33:25.243Z,47.60
2019-05-13T22:35:56.191Z,47.40
2019-05-13T22:38:26.775Z,47.60
2019-05-13T22:40:57.413Z,47.50
2019-05-13T22:43:28.042Z,47.60
2019-05-13T22:45:58.808Z,47.80
2019-05-13T22:48:31.519Z,47.80
2019-05-13T22:51:02.022Z,48.00
2019-05-13T22:53:32.752Z,48.50
2019-05-13T22:56:03.490Z,48.20
2019-05-13T22:58:34.202Z,48.20
2019-05-13T23:01:05.368Z,48.30
2019-05-13T23:03:36.292Z,48.20
2019-05-13T23:06:06.952Z,48.20
2019-05-13T23:08:37.768Z,48.20
2019-05-13T23:11:08.358Z,49.00
2019-05-13T23:13:38.959Z,48.90
2019-05-13T23:16:11.537Z,49.00
2019-05-13T23:18:42.277Z,49.00
2019-05-13T23:21:12.848Z,49.30
2019-05-13T23:23:43.296Z,49.90
2019-05-13T23:26:13.880Z,50.00
2019-05-13T23:28:44.430Z,50.60
2019-05-13T23:31:14.959Z,50.40
2019-05-13T23:33:47.482Z,50.10
2019-05-13T23:36:18.296Z,50.60
2019-05-13T23:38:48.972Z,50.80
2019-05-13T23:41:21.643Z,50.20
2019-05-13T23:43:51.750Z,50.10
2019-05-13T23:46:22.447Z,50.50
2019-05-13T23:48:53.260Z,50.20
2019-05-13T23:51:23.820Z,50.80
2019-05-13T23:53:54.473Z,51.00
2019-05-13T23:56:25.076Z,50.90
2019-05-13T23:58:55.567Z,50.80
